KPNS/PNS METAR and TAF weather

Enter ICAO airport designator
Station Type Date Time Source
KPNS METAR 2022/01/29 13:53 UTC NOAA

KPNS 291353Z 35014G21KT 10SM CLR 01/M11 A3035 RMK AO2 SLP281 T00061106


Station Type Date Time Source
KPNS Decoded METAR 2022/01/29 13:53 UTC NOAA

PENSACOLA REGIONAL AIRPORT, FL, United States (KPNS) 30-29N 087-11W 38M
Jan 29, 2022 - 08:53 AM EST / 2022.01.29 1353 UTC
Wind: from the N (350 degrees) at 16 MPH (14 KT) gusting to 24 MPH (21 KT):0
Visibility: 10 mile(s):0
Sky conditions: clear
Temperature: 33.1 F (0.6 C)
Windchill: 23 F (-5 C):1
Dew Point: 12.9 F (-10.6 C)
Relative Humidity: 42%
Pressure (altimeter): 30.35 in. Hg (1027 hPa)
ob: KPNS 291353Z 35014G21KT 10SM CLR 01/M11 A3035 RMK AO2 SLP281 T00061106
cycle: 14

Station Type Date Time Source
KPNS TAF 2022/01/29 13:58 UTC NOAA

TAF
AMD KPNS 291257Z 2913/3012 33012G19KT P6SM SKC
FM292200 30007KT P6SM SKC
FM300200 VRB03KT P6SM SKC

Example: see airport list